createdAt,value
2023-05-23T00:00:52.108Z,100061.09
2023-05-23T00:05:59.816Z,100062.16
2023-05-23T00:11:02.414Z,100063.04
2023-05-23T00:16:09.654Z,100062.89
2023-05-23T00:21:13.655Z,100064.53
2023-05-23T00:26:16.286Z,100065.21
2023-05-23T00:31:18.964Z,100061.57
2023-05-23T00:36:22.248Z,100063.60
2023-05-23T00:41:27.005Z,100060.48
2023-05-23T00:46:31.849Z,100059.73
2023-05-23T00:51:34.638Z,100052.23
2023-05-23T00:56:38.807Z,100047.17
2023-05-23T01:01:41.575Z,100045.92
2023-05-23T01:06:46.663Z,100046.36
2023-05-23T01:12:00.756Z,100049.02
2023-05-23T01:17:25.287Z,100046.93
2023-05-23T01:22:50.566Z,100042.55
2023-05-23T01:27:57.043Z,100042.01
2023-05-23T01:33:00.766Z,100037.63
2023-05-23T01:38:03.571Z,100034.09
2023-05-23T01:43:06.783Z,100033.93
2023-05-23T01:48:11.912Z,100035.92
2023-05-23T01:53:17.533Z,100035.46
2023-05-23T01:58:20.328Z,100034.02
2023-05-23T02:03:23.068Z,100030.52
2023-05-23T02:08:25.865Z,100026.39
2023-05-23T02:13:28.470Z,100023.23
2023-05-23T02:18:31.096Z,100017.66
2023-05-23T02:23:33.880Z,100013.88
2023-05-23T02:28:36.531Z,100015.71
2023-05-23T02:33:39.117Z,100013.00
2023-05-23T02:38:41.714Z,100011.54
2023-05-23T02:43:47.062Z,100010.63
2023-05-23T02:48:50.155Z,100004.15
2023-05-23T02:53:52.771Z,100010.50
2023-05-23T02:58:55.389Z,100009.33
2023-05-23T03:03:58.147Z,100010.45
2023-05-23T03:09:01.571Z,100003.48
2023-05-23T03:14:04.276Z,100006.27
2023-05-23T03:19:06.965Z,100011.36
2023-05-23T03:24:09.623Z,100012.21
2023-05-23T03:29:12.531Z,100007.46
2023-05-23T03:34:15.434Z,100010.55
2023-05-23T03:39:18.342Z,100009.82
2023-05-23T03:44:21.012Z,100014.12
2023-05-23T03:49:23.688Z,100006.98
2023-05-23T03:54:26.644Z,100007.98
2023-05-23T03:59:29.317Z,100002.45
2023-05-23T04:04:32.323Z,99998.20
2023-05-23T04:09:35.031Z,99995.67
2023-05-23T04:14:39.469Z,99994.15
2023-05-23T04:19:43.299Z,99992.94
2023-05-23T04:24:46.164Z,99991.89
2023-05-23T04:29:48.862Z,99989.98
2023-05-23T04:34:52.269Z,99985.23
2023-05-23T04:39:55.127Z,99989.86
2023-05-23T04:44:58.222Z,99992.93
2023-05-23T04:50:01.055Z,99990.92
2023-05-23T04:55:04.739Z,99990.71
2023-05-23T05:00:11.517Z,99988.65
2023-05-23T05:05:14.111Z,99994.69
2023-05-23T05:10:17.836Z,99996.06
2023-05-23T05:15:20.520Z,99990.58
2023-05-23T05:20:23.317Z,99981.21
2023-05-23T05:25:27.402Z,99981.80
2023-05-23T05:30:30.636Z,99979.94
2023-05-23T05:35:38.406Z,99976.57
2023-05-23T05:40:41.212Z,99978.71
2023-05-23T05:45:43.976Z,99978.02
2023-05-23T05:50:46.930Z,99972.26
2023-05-23T05:55:49.614Z,99971.97
2023-05-23T06:00:53.622Z,99973.38
2023-05-23T06:05:56.225Z,99977.95
2023-05-23T06:10:58.859Z,99977.08
2023-05-23T06:16:01.552Z,99974.27
2023-05-23T06:21:04.243Z,99972.30
2023-05-23T06:26:10.647Z,99971.48
2023-05-23T06:31:13.476Z,99962.58
2023-05-23T06:36:16.090Z,99956.21
2023-05-23T06:41:18.823Z,99948.48
2023-05-23T06:46:21.670Z,99949.20
2023-05-23T06:51:24.414Z,99948.95
2023-05-23T06:56:27.114Z,99943.67
2023-05-23T07:01:29.772Z,99941.95
2023-05-23T07:06:32.913Z,99941.17
2023-05-23T07:11:35.620Z,99936.60
2023-05-23T07:16:38.228Z,99934.92
2023-05-23T07:21:40.920Z,99934.98
2023-05-23T07:26:43.764Z,99931.06
2023-05-23T07:31:46.459Z,99928.77
2023-05-23T07:36:50.320Z,99922.92
2023-05-23T07:41:52.986Z,99925.48
2023-05-23T07:46:56.998Z,99926.17
2023-05-23T07:51:59.704Z,99924.77
2023-05-23T07:57:02.328Z,99923.48
2023-05-23T08:02:05.044Z,99917.96
2023-05-23T08:07:08.865Z,99914.10
2023-05-23T08:12:11.681Z,99910.02
2023-05-23T08:17:14.455Z,99906.43
2023-05-23T08:22:17.166Z,99905.89
2023-05-23T08:27:19.859Z,99899.92
2023-05-23T08:32:22.677Z,99904.39
2023-05-23T08:37:25.363Z,99904.73
2023-05-23T08:42:27.977Z,99901.14
2023-05-23T08:47:33.925Z,99897.48
2023-05-23T08:52:43.018Z,99897.83
2023-05-23T08:57:46.139Z,99895.38
2023-05-23T09:02:48.773Z,99896.00
2023-05-23T09:07:51.876Z,99890.02
2023-05-23T09:12:54.555Z,99890.05
2023-05-23T09:18:03.751Z,99885.13
2023-05-23T09:23:06.419Z,99879.99
2023-05-23T09:28:09.331Z,99885.40
2023-05-23T09:33:14.215Z,99884.04
2023-05-23T09:38:19.187Z,99881.13
2023-05-23T09:43:22.070Z,99879.63
2023-05-23T09:48:30.998Z,99879.39
2023-05-23T09:53:33.580Z,99873.23
2023-05-23T09:58:36.946Z,99872.14
2023-05-23T10:03:59.946Z,99867.73
2023-05-23T10:09:09.850Z,99861.28
2023-05-23T10:14:13.388Z,99863.48
2023-05-23T10:19:46.276Z,99859.63
2023-05-23T10:24:49.461Z,99855.42
2023-05-23T10:29:52.221Z,99849.30
2023-05-23T10:35:10.623Z,99846.88
2023-05-23T10:40:31.080Z,99844.98
2023-05-23T10:45:42.620Z,99851.31
2023-05-23T10:50:46.772Z,99853.61
2023-05-23T10:55:49.407Z,99849.83
2023-05-23T11:00:53.135Z,99844.02
2023-05-23T11:05:55.761Z,99840.23
2023-05-23T11:11:03.223Z,99842.05
2023-05-23T11:16:27.815Z,99842.02
2023-05-23T11:21:32.093Z,99841.07
2023-05-23T11:26:34.736Z,99842.98
2023-05-23T11:31:38.304Z,99838.17
2023-05-23T11:36:41.370Z,99835.92
2023-05-23T11:41:44.091Z,99840.91
2023-05-23T11:47:00.453Z,99838.32
2023-05-23T11:52:03.889Z,99834.46
2023-05-23T11:57:06.575Z,99832.91
2023-05-23T12:02:09.272Z,99824.84
2023-05-23T12:07:11.942Z,99818.60
2023-05-23T12:12:15.032Z,99820.52
2023-05-23T12:17:17.677Z,99810.81
2023-05-23T12:22:26.891Z,99807.39
2023-05-23T12:27:32.371Z,99807.27
2023-05-23T12:32:39.772Z,99805.30
2023-05-23T12:37:45.950Z,99812.11
2023-05-23T12:42:52.883Z,99806.85
2023-05-23T12:47:55.676Z,99803.19
2023-05-23T12:52:59.041Z,99797.97
2023-05-23T12:58:01.627Z,99792.44
2023-05-23T13:03:06.582Z,99786.38
2023-05-23T13:08:09.397Z,99778.09
2023-05-23T13:13:12.286Z,99779.09
2023-05-23T13:18:14.997Z,99775.73
2023-05-23T13:23:17.745Z,99773.73
2023-05-23T13:28:20.604Z,99772.14
2023-05-23T13:33:23.670Z,99775.80
2023-05-23T13:38:27.640Z,99771.50
2023-05-23T13:43:31.192Z,99770.58
2023-05-23T13:48:33.884Z,99770.77
2023-05-23T13:53:36.556Z,99768.80
2023-05-23T13:58:39.124Z,99764.56
2023-05-23T14:03:41.807Z,99760.06
2023-05-23T14:08:44.489Z,99756.82
2023-05-23T14:13:47.142Z,99753.70
2023-05-23T14:18:50.061Z,99750.92
2023-05-23T14:23:52.679Z,99745.11
2023-05-23T14:28:55.417Z,99743.19
2023-05-23T14:33:58.236Z,99744.52
2023-05-23T14:39:01.416Z,99740.27
2023-05-23T14:44:04.392Z,99738.20
2023-05-23T14:49:07.125Z,99736.41
2023-05-23T14:54:09.870Z,99733.74
2023-05-23T14:59:12.791Z,99727.64
2023-05-23T15:04:15.749Z,99723.92
2023-05-23T15:09:19.094Z,99723.29
2023-05-23T15:14:22.889Z,99728.50
2023-05-23T15:19:25.520Z,99727.99
2023-05-23T15:24:28.533Z,99724.80
2023-05-23T15:29:33.791Z,99722.12
2023-05-23T15:34:36.529Z,99719.85
2023-05-23T15:39:39.165Z,99719.30
2023-05-23T15:44:41.869Z,99722.42
2023-05-23T15:49:44.663Z,99722.04
2023-05-23T15:54:47.283Z,99725.92
2023-05-23T15:59:49.871Z,99720.52
2023-05-23T16:04:52.483Z,99712.41
2023-05-23T16:09:55.154Z,99709.16
2023-05-23T16:14:57.930Z,99706.81
2023-05-23T16:20:02.755Z,99704.74
2023-05-23T16:25:06.732Z,99701.52
2023-05-23T16:30:09.981Z,99698.33
2023-05-23T16:35:12.926Z,99691.56
2023-05-23T16:40:17.661Z,99696.30
2023-05-23T16:45:21.853Z,99696.10
2023-05-23T16:50:24.555Z,99697.11
2023-05-23T16:55:27.188Z,99693.39
2023-05-23T17:00:29.855Z,99691.88
2023-05-23T17:05:33.823Z,99689.92
2023-05-23T17:10:36.987Z,99691.54
2023-05-23T17:15:40.111Z,99692.21
2023-05-23T17:20:43.135Z,99691.09
2023-05-23T17:25:46.570Z,99695.19
2023-05-23T17:30:51.759Z,99692.08
2023-05-23T17:35:55.187Z,99689.19
2023-05-23T17:40:58.140Z,99688.91
2023-05-23T17:46:01.248Z,99689.54
2023-05-23T17:51:04.250Z,99693.63
2023-05-23T17:56:09.219Z,99693.68
2023-05-23T18:01:13.665Z,99694.08
2023-05-23T18:06:16.902Z,99690.34
2023-05-23T18:11:21.470Z,99691.41
2023-05-23T18:16:24.140Z,99691.66
2023-05-23T18:21:27.423Z,99692.79
2023-05-23T18:26:30.353Z,99699.01
2023-05-23T18:31:33.270Z,99704.52
2023-05-23T18:36:36.606Z,99709.73
2023-05-23T18:41:39.781Z,99714.75
2023-05-23T18:46:42.736Z,99720.23
2023-05-23T18:51:47.429Z,99723.55
2023-05-23T18:56:50.440Z,99722.16
2023-05-23T19:01:54.335Z,99722.13
2023-05-23T19:06:57.123Z,99722.84
2023-05-23T19:12:00.645Z,99727.52
2023-05-23T19:17:05.824Z,99728.77
2023-05-23T19:22:09.573Z,99732.98
2023-05-23T19:27:12.471Z,99735.40
2023-05-23T19:32:16.618Z,99734.38
2023-05-23T19:37:20.907Z,99733.25
2023-05-23T19:42:24.064Z,99734.98
2023-05-23T19:47:29.555Z,99736.48
2023-05-23T19:52:33.431Z,99741.58
2023-05-23T19:57:37.127Z,99741.52
2023-05-23T20:02:39.787Z,99744.73
2023-05-23T20:07:43.501Z,99745.17
2023-05-23T20:12:47.924Z,99747.73
2023-05-23T20:17:51.026Z,99750.55
2023-05-23T20:22:53.716Z,99754.84
2023-05-23T20:27:56.604Z,99758.47
2023-05-23T20:32:59.268Z,99761.90
2023-05-23T20:38:02.278Z,99766.05
2023-05-23T20:43:05.101Z,99765.30
2023-05-23T20:48:07.957Z,99769.08
2023-05-23T20:53:10.862Z,99770.60
2023-05-23T20:58:13.429Z,99769.79
2023-05-23T21:03:16.807Z,99767.85
2023-05-23T21:08:19.615Z,99772.73
2023-05-23T21:13:22.202Z,99773.27
2023-05-23T21:18:24.819Z,99773.84
2023-05-23T21:23:27.450Z,99775.09
2023-05-23T21:28:30.412Z,99780.20
2023-05-23T21:33:33.553Z,99776.40
2023-05-23T21:38:37.507Z,99777.98
2023-05-23T21:43:40.360Z,99781.59
2023-05-23T21:48:42.990Z,99779.39
2023-05-23T21:53:45.648Z,99788.32
2023-05-23T21:58:48.210Z,99790.17
2023-05-23T22:03:51.278Z,99787.80
2023-05-23T22:08:54.251Z,99790.56
2023-05-23T22:13:56.827Z,99785.73
2023-05-23T22:18:59.436Z,99786.77
2023-05-23T22:24:02.791Z,99781.91
2023-05-23T22:29:05.477Z,99786.55
2023-05-23T22:34:08.062Z,99787.81
2023-05-23T22:39:10.698Z,99788.99
2023-05-23T22:44:13.269Z,99783.52
2023-05-23T22:49:15.835Z,99786.44
2023-05-23T22:54:18.600Z,99786.70
2023-05-23T22:59:21.228Z,99783.35
2023-05-23T23:04:25.436Z,99780.45
2023-05-23T23:09:28.156Z,99780.08
2023-05-23T23:14:30.937Z,99774.86
2023-05-23T23:19:35.255Z,99775.27
2023-05-23T23:24:37.854Z,99777.23
2023-05-23T23:29:40.463Z,99775.38
2023-05-23T23:34:43.015Z,99772.30
2023-05-23T23:39:45.788Z,99769.81
2023-05-23T23:44:48.634Z,99773.52
2023-05-23T23:49:51.338Z,99774.45
2023-05-23T23:54:53.950Z,99776.09
2023-05-23T23:59:56.787Z,99777.11
